Aboy Sienna — 9HA4236 — position and weather

sailwx.info

Track history (hours):
 
Tides and Currents Weather Stations Pressure Air Temp Water Temp Dewpoint Dewpoint Depression Visibility Wind Speed Wind Dir Waves Ship Positions

Aboy Sienna

Last reported at 2018-Apr-25 17:51 UTC. Time now 2018-Apr-26 23:11 UTC.
Position N 01°26' E 104°30'.

Length 300 m; draft 18.2 m.

Type: Cargo ship. MMSI: 249420000.

Date/timePositionNaut miles runAvg speedWind from/ knotsBaromVisibWave heightAir tempDewpointWater temp
2018-Apr-25 17:51N 01°26' E 104°30'510.9
2018-Apr-25 17:22N 01°23' E 104°26'511.7
2018-Apr-25 16:57N 01°19' E 104°22'510.8
2018-Apr-25 16:28N 01°17' E 104°18'510.7
2018-Apr-25 15:59N 01°16' E 104°13'510.7
2018-Apr-25 15:30N 01°16' E 104°08'510.3
2018-Apr-25 14:59N 01°15' E 104°02'510.6
2018-Apr-25 14:30N 01°14' E 103°57'610.6
2018-Apr-25 13:59N 01°12' E 103°52'4 9.5
2018-Apr-25 13:30N 01°10' E 103°48'5 9.3
2018-Apr-25 12:59N 01°07' E 103°44'510.0
2018-Apr-25 12:31N 01°03' E 103°41'4 8.6
2018-Apr-25 12:00N 01°03' E 103°37'611.4
2018-Apr-25 11:30N 01°07' E 103°33'611.9
2018-Apr-25 10:59N 01°10' E 103°27'612.6
2018-Apr-25 10:30N 01°13' E 103°22'612.3
2018-Apr-25 09:59N 01°18' E 103°17'612.1
2018-Apr-25 09:28N 01°22' E 103°13'612.2
2018-Apr-25 08:59N 01°25' E 103°08'  
Track history (hours):
 
Tides and Currents Weather Stations Pressure Air Temp Water Temp Dewpoint Dewpoint Depression Visibility Wind Speed Wind Dir Waves Ship Positions

Aboy Sienna

Last reported at 2018-Apr-25 17:51 UTC. Time now 2018-Apr-26 23:11 UTC.
Position N 01°26' E 104°30'.

Length 300 m; draft 18.2 m.

Type: Cargo ship. MMSI: 249420000.

Date/timePositionNaut miles runAvg speedWind from/ knotsBaromVisibWave heightAir tempDewpointWater temp
2018-Apr-25 17:51N 01°26' E 104°30'510.9
2018-Apr-25 17:22N 01°23' E 104°26'511.7
2018-Apr-25 16:57N 01°19' E 104°22'510.8
2018-Apr-25 16:28N 01°17' E 104°18'510.7
2018-Apr-25 15:59N 01°16' E 104°13'510.7
2018-Apr-25 15:30N 01°16' E 104°08'510.3
2018-Apr-25 14:59N 01°15' E 104°02'510.6
2018-Apr-25 14:30N 01°14' E 103°57'610.6
2018-Apr-25 13:59N 01°12' E 103°52'4 9.5
2018-Apr-25 13:30N 01°10' E 103°48'5 9.3
2018-Apr-25 12:59N 01°07' E 103°44'510.0
2018-Apr-25 12:31N 01°03' E 103°41'4 8.6
2018-Apr-25 12:00N 01°03' E 103°37'611.4
2018-Apr-25 11:30N 01°07' E 103°33'611.9
2018-Apr-25 10:59N 01°10' E 103°27'612.6
2018-Apr-25 10:30N 01°13' E 103°22'612.3
2018-Apr-25 09:59N 01°18' E 103°17'612.1
2018-Apr-25 09:28N 01°22' E 103°13'612.2
2018-Apr-25 08:59N 01°25' E 103°08'  

Dump ship's entire track history